Time;durP1;ratioP1;P1;durP2;ratioP2;P2;SDS_P1;SDS_P2;PMS_P1;PMS_P2;Temp;Humidity;BMP_temperature;BMP_pressure;BME280_temperature;BME280_humidity;BME280_pressure;Samples;Min_cycle;Max_cycle;Signal;HPM_P1;HPM_P2
2023/04/01 00:00:45;;;;;;;3.27;0.80;;;12.20;64.80;;;;;;5034535;28;20531;-49
2023/04/01 00:03:11;;;;;;;4.23;0.70;;;12.30;65.10;;;;;;5046700;28;20563;-52
2023/04/01 00:05:36;;;;;;;1.90;0.73;;;12.20;65.30;;;;;;5042022;28;20444;-50
2023/04/01 00:08:02;;;;;;;0.87;0.80;;;12.20;65.60;;;;;;5039877;28;20338;-48
2023/04/01 00:10:27;;;;;;;1.97;0.87;;;12.10;66.20;;;;;;5042483;28;20192;-49
2023/04/01 00:12:53;;;;;;;3.30;1.00;;;12.20;65.70;;;;;;5049518;28;20955;-48
2023/04/01 00:15:19;;;;;;;1.90;1.00;;;12.00;66.40;;;;;;5050644;28;20284;-51
2023/04/01 00:17:44;;;;;;;2.00;0.90;;;12.10;67.00;;;;;;5046382;28;20652;-48
2023/04/01 00:20:11;;;;;;;0.90;0.60;;;12.10;66.70;;;;;;5046482;28;20208;-49
2023/04/01 00:22:37;;;;;;;1.30;0.77;;;12.30;66.60;;;;;;5036247;28;20201;-48
2023/04/01 00:25:04;;;;;;;1.10;0.90;;;12.30;66.20;;;;;;5037457;28;20474;-49
2023/04/01 00:27:29;;;;;;;0.80;0.80;;;12.10;66.60;;;;;;5031494;28;20761;-49
2023/04/01 00:29:55;;;;;;;1.63;1.00;;;12.00;67.60;;;;;;5036280;28;20477;-49
2023/04/01 00:32:21;;;;;;;5.40;1.10;;;12.20;67.30;;;;;;5028637;28;20215;-49
2023/04/01 00:34:51;;;;;;;3.20;0.70;;;12.20;66.90;;;;;;5038336;28;20237;-52
2023/04/01 00:37:17;;;;;;;1.40;1.30;;;12.10;66.60;;;;;;5044501;28;20614;-52
2023/04/01 00:39:42;;;;;;;2.83;1.10;;;12.20;66.90;;;;;;5041231;28;20455;-48
2023/04/01 00:42:09;;;;;;;1.60;1.00;;;12.30;66.90;;;;;;5045767;28;20673;-49
2023/04/01 00:44:37;;;;;;;2.80;1.00;;;12.40;66.20;;;;;;5042102;28;20271;-48
2023/04/01 00:47:03;;;;;;;3.00;0.97;;;12.40;66.10;;;;;;5031969;28;20494;-49
2023/04/01 00:49:37;;;;;;;1.60;0.90;;;12.50;65.90;;;;;;5039328;28;20837;-49
2023/04/01 00:52:05;;;;;;;1.03;0.70;;;12.50;65.20;;;;;;5039222;28;20298;-51
2023/04/01 00:54:32;;;;;;;2.83;0.93;;;12.40;65.80;;;;;;5029156;28;20496;-49
2023/04/01 00:57:08;;;;;;;4.20;1.13;;;12.40;66.40;;;;;;5036525;28;20942;-48
2023/04/01 00:59:49;;;;;;;2.80;1.10;;;12.40;66.50;;;;;;5037531;28;20442;-52
2023/04/01 01:02:16;;;;;;;3.07;1.40;;;12.50;65.90;;;;;;5037340;28;20958;-48
2023/04/01 01:04:41;;;;;;;4.10;1.50;;;12.40;66.30;;;;;;5039191;28;20439;-50
2023/04/01 01:07:26;;;;;;;1.63;0.70;;;12.50;66.60;;;;;;5039501;28;20431;-51
2023/04/01 01:10:09;;;;;;;3.83;1.30;;;12.50;66.20;;;;;;5032974;28;20279;-49
2023/04/01 01:12:50;;;;;;;2.87;1.20;;;12.50;66.50;;;;;;5033892;28;20450;-49
2023/04/01 01:15:23;;;;;;;1.20;0.87;;;12.30;66.80;;;;;;5033869;28;20476;-49
2023/04/01 01:18:06;;;;;;;1.43;1.00;;;12.30;66.90;;;;;;5033823;28;21040;-51
2023/04/01 01:20:44;;;;;;;2.33;1.00;;;12.40;67.50;;;;;;5039442;28;20493;-50
2023/04/01 01:24:02;;;;;;;1.07;1.00;;;12.20;67.80;;;;;;5033426;28;20955;-50
2023/04/01 01:26:52;;;;;;;1.90;1.00;;;12.30;68.10;;;;;;5028961;28;20493;-50
2023/04/01 01:29:26;;;;;;;2.70;0.97;;;12.50;67.40;;;;;;5044920;28;20443;-49
2023/04/01 01:32:03;;;;;;;1.57;0.90;;;12.60;66.60;;;;;;5042869;28;20441;-49
2023/04/01 01:34:55;;;;;;;0.80;0.80;;;12.70;66.30;;;;;;5035607;28;21061;-49
2023/04/01 01:37:23;;;;;;;3.13;1.10;;;12.50;66.50;;;;;;5036650;28;20981;-50
2023/04/01 01:39:55;;;;;;;1.77;0.73;;;12.50;66.60;;;;;;5036830;28;20450;-49
2023/04/01 01:42:22;;;;;;;1.37;1.27;;;12.50;66.40;;;;;;5037781;28;20451;-49
2023/04/01 01:44:49;;;;;;;2.10;1.00;;;12.60;67.10;;;;;;5036028;28;20950;-50
2023/04/01 01:47:16;;;;;;;1.20;0.80;;;12.60;67.40;;;;;;5030085;28;20448;-49
2023/04/01 01:49:44;;;;;;;1.47;0.83;;;12.60;66.60;;;;;;5041935;28;20442;-49
2023/04/01 01:52:11;;;;;;;3.93;0.93;;;12.70;66.50;;;;;;5040942;28;20440;-48
2023/04/01 01:54:50;;;;;;;1.27;0.77;;;12.70;67.00;;;;;;5044636;28;20982;-51
2023/04/01 01:57:17;;;;;;;1.90;1.23;;;12.80;67.00;;;;;;5037427;28;20509;-51
2023/04/01 01:59:46;;;;;;;3.70;1.10;;;12.50;67.30;;;;;;5050382;28;20415;-48
2023/04/01 02:02:14;;;;;;;1.03;0.80;;;12.50;68.90;;;;;;5042374;28;20443;-48
2023/04/01 02:04:43;;;;;;;1.70;0.73;;;12.40;69.00;;;;;;5049324;28;20923;-49
2023/04/01 02:07:18;;;;;;;2.70;1.00;;;12.40;68.70;;;;;;5032710;28;20458;-49
2023/04/01 02:09:43;;;;;;;3.27;1.13;;;12.50;69.80;;;;;;5046790;28;20427;-50
2023/04/01 02:12:13;;;;;;;1.30;0.90;;;12.50;69.70;;;;;;5049379;28;20426;-52
2023/04/01 02:14:51;;;;;;;1.10;0.73;;;12.50;69.50;;;;;;5032167;28;20311;-48
2023/04/01 02:17:23;;;;;;;2.00;0.87;;;12.60;69.40;;;;;;5030356;28;20428;-49
2023/04/01 02:20:08;;;;;;;4.33;1.10;;;12.70;68.60;;;;;;5030520;28;20435;-49
2023/04/01 02:22:41;;;;;;;2.73;1.40;;;12.70;68.40;;;;;;5049423;28;20525;-51
2023/04/01 02:25:12;;;;;;;2.27;0.97;;;12.70;68.00;;;;;;5038786;28;20424;-50
2023/04/01 02:27:39;;;;;;;2.10;1.03;;;12.80;67.80;;;;;;5032907;28;20439;-49
2023/04/01 02:30:07;;;;;;;2.40;0.83;;;12.70;67.40;;;;;;5033362;28;20942;-49
2023/04/01 02:32:33;;;;;;;1.37;0.80;;;12.40;68.30;;;;;;5041863;28;20451;-49
2023/04/01 02:35:03;;;;;;;1.13;0.80;;;12.20;69.70;;;;;;5034347;28;20482;-51
2023/04/01 02:37:28;;;;;;;3.23;1.03;;;12.30;70.30;;;;;;5041255;28;21026;-48
2023/04/01 02:39:54;;;;;;;1.13;0.77;;;12.30;69.90;;;;;;5045768;28;20443;-48
2023/04/01 02:42:20;;;;;;;2.17;0.90;;;12.50;69.80;;;;;;5036858;28;20224;-51
2023/04/01 02:44:45;;;;;;;2.30;1.00;;;12.40;69.20;;;;;;5049039;28;20197;-49
2023/04/01 02:47:11;;;;;;;1.83;0.70;;;12.40;68.60;;;;;;5045046;28;21130;-50
2023/04/01 02:49:36;;;;;;;2.20;0.63;;;12.60;68.20;;;;;;5049342;28;20195;-51
2023/04/01 02:52:02;;;;;;;1.93;0.90;;;12.70;67.80;;;;;;5048276;28;20620;-49
2023/04/01 02:54:28;;;;;;;0.70;0.70;;;12.30;67.40;;;;;;5050326;28;20339;-49
2023/04/01 02:56:53;;;;;;;0.67;0.60;;;12.30;67.60;;;;;;5044610;28;20189;-50
2023/04/01 02:59:19;;;;;;;0.50;0.50;;;12.00;67.70;;;;;;5046257;28;20193;-50
2023/04/01 03:01:44;;;;;;;0.90;0.87;;;12.00;68.20;;;;;;5038282;28;20189;-49
2023/04/01 03:04:10;;;;;;;1.00;0.50;;;12.10;68.00;;;;;;5043829;28;20600;-49
2023/04/01 03:06:35;;;;;;;1.17;0.77;;;12.10;67.60;;;;;;5041596;28;20268;-52
2023/04/01 03:09:03;;;;;;;2.20;0.60;;;12.00;67.60;;;;;;5047011;28;20565;-50
2023/04/01 03:11:28;;;;;;;0.70;0.60;;;12.20;66.70;;;;;;5043317;28;20195;-53
2023/04/01 03:13:54;;;;;;;1.03;0.60;;;12.00;66.30;;;;;;5048407;28;20486;-52
2023/04/01 03:16:19;;;;;;;0.70;0.70;;;11.80;66.80;;;;;;5038983;28;20201;-52
2023/04/01 03:18:45;;;;;;;0.57;0.57;;;11.60;68.00;;;;;;5037433;28;20276;-53
2023/04/01 03:21:22;;;;;;;0.60;0.50;;;11.60;68.00;;;;;;5041476;28;20243;-52
2023/04/01 03:23:47;;;;;;;2.23;0.60;;;11.50;67.70;;;;;;5038929;28;20725;-52
2023/04/01 03:26:13;;;;;;;1.10;0.50;;;11.50;68.50;;;;;;5040314;28;20443;-52
2023/04/01 03:28:39;;;;;;;0.97;0.70;;;11.60;68.10;;;;;;5045144;28;20197;-52
2023/04/01 03:31:04;;;;;;;0.73;0.73;;;11.60;68.30;;;;;;5043072;28;20444;-53
2023/04/01 03:33:31;;;;;;;1.70;0.80;;;11.70;67.30;;;;;;5039080;28;20295;-53
2023/04/01 03:35:56;;;;;;;2.07;0.60;;;11.70;66.80;;;;;;5045295;28;20307;-52
2023/04/01 03:38:22;;;;;;;1.50;0.70;;;11.70;66.80;;;;;;5034328;28;21015;-52
2023/04/01 03:40:48;;;;;;;0.80;0.70;;;11.70;66.60;;;;;;5035698;28;20205;-52
2023/04/01 03:43:13;;;;;;;0.80;0.60;;;11.80;66.40;;;;;;5038884;28;20209;-52
2023/04/01 03:45:47;;;;;;;1.27;0.70;;;12.00;66.10;;;;;;5044809;28;20235;-53
2023/04/01 03:48:13;;;;;;;3.13;0.70;;;11.80;65.70;;;;;;5041944;28;20205;-53
2023/04/01 03:50:39;;;;;;;2.27;0.80;;;11.80;66.20;;;;;;5038669;28;20493;-51
2023/04/01 03:53:05;;;;;;;1.07;0.70;;;11.80;65.80;;;;;;5036358;28;21020;-50
2023/04/01 03:55:30;;;;;;;1.07;0.73;;;11.70;66.00;;;;;;5036137;28;20239;-49
2023/04/01 03:57:56;;;;;;;0.60;0.50;;;11.80;65.80;;;;;;5037487;28;20214;-50
2023/04/01 04:00:22;;;;;;;1.80;0.60;;;11.80;65.40;;;;;;5035435;28;20637;-48
2023/04/01 04:02:47;;;;;;;1.30;0.50;;;11.80;65.10;;;;;;5032581;28;20679;-50
2023/04/01 04:05:13;;;;;;;2.20;0.90;;;11.80;64.90;;;;;;5050507;28;20287;-49
2023/04/01 04:07:39;;;;;;;1.23;0.67;;;12.00;64.90;;;;;;5046563;28;20189;-50
2023/04/01 04:10:05;;;;;;;1.00;0.87;;;11.90;64.20;;;;;;5044253;28;20531;-49
2023/04/01 04:12:31;;;;;;;1.33;0.50;;;12.00;64.20;;;;;;5041165;28;20197;-48
2023/04/01 04:14:57;;;;;;;1.37;0.70;;;11.90;63.90;;;;;;5046322;28;20498;-48
2023/04/01 04:17:22;;;;;;;0.60;0.60;;;11.90;64.40;;;;;;5042082;28;20216;-49
2023/04/01 04:19:48;;;;;;;0.80;0.70;;;12.00;63.90;;;;;;5036071;28;20319;-49
2023/04/01 04:22:14;;;;;;;1.03;0.67;;;11.70;63.50;;;;;;5044175;28;20207;-51
2023/04/01 04:24:39;;;;;;;1.13;0.83;;;11.80;64.00;;;;;;5043855;28;20197;-53
2023/04/01 04:27:05;;;;;;;1.67;0.73;;;11.90;63.90;;;;;;5037868;28;20204;-53
2023/04/01 04:29:31;;;;;;;1.53;0.60;;;11.90;63.80;;;;;;5034208;28;20246;-52
2023/04/01 04:31:56;;;;;;;1.23;0.70;;;12.10;63.30;;;;;;5037190;28;20439;-50
2023/04/01 04:34:22;;;;;;;0.53;0.53;;;12.10;62.70;;;;;;5037547;28;20299;-52
2023/04/01 04:36:48;;;;;;;0.60;0.50;;;12.30;62.30;;;;;;5044068;28;20250;-53
2023/04/01 04:39:14;;;;;;;1.17;0.80;;;12.20;61.50;;;;;;5044227;28;20197;-52
2023/04/01 04:41:41;;;;;;;1.43;0.50;;;12.20;61.90;;;;;;5037011;28;20470;-49
2023/04/01 04:44:07;;;;;;;1.37;0.57;;;12.40;61.70;;;;;;5031631;28;21032;-53
2023/04/01 04:46:33;;;;;;;0.70;0.70;;;12.20;61.50;;;;;;5038298;28;20450;-53
2023/04/01 04:48:58;;;;;;;0.70;0.57;;;12.30;61.70;;;;;;5041164;28;20960;-52
2023/04/01 04:51:24;;;;;;;0.87;0.60;;;12.40;61.20;;;;;;5051029;28;20262;-48
2023/04/01 04:53:50;;;;;;;0.50;0.50;;;12.30;61.40;;;;;;5050341;28;20236;-52
2023/04/01 04:56:20;;;;;;;3.40;0.63;;;12.10;62.10;;;;;;5048079;28;20204;-52
2023/04/01 04:58:46;;;;;;;0.50;0.50;;;12.10;62.00;;;;;;5030273;28;20428;-53
2023/04/01 05:01:14;;;;;;;0.70;0.60;;;12.20;62.10;;;;;;5042197;28;20862;-50
2023/04/01 05:03:40;;;;;;;0.70;0.50;;;12.40;61.80;;;;;;5031212;28;20193;-52
2023/04/01 05:06:08;;;;;;;2.07;0.70;;;12.60;61.30;;;;;;5033159;28;20435;-49
2023/04/01 05:08:34;;;;;;;1.57;0.70;;;12.50;60.90;;;;;;5029129;28;20204;-49
2023/04/01 05:11:01;;;;;;;2.73;0.70;;;12.50;61.30;;;;;;5028570;28;20458;-52
2023/04/01 05:13:27;;;;;;;3.43;1.10;;;12.50;61.30;;;;;;5033964;28;21082;-49
2023/04/01 05:15:53;;;;;;;0.87;0.70;;;12.40;61.80;;;;;;5035399;28;20523;-50
2023/04/01 05:18:19;;;;;;;1.43;0.63;;;12.10;62.10;;;;;;5031300;28;21109;-49
2023/04/01 05:20:50;;;;;;;1.97;1.50;;;12.30;63.20;;;;;;5034082;28;20450;-50
2023/04/01 05:23:16;;;;;;;3.23;0.80;;;12.20;62.90;;;;;;5040717;28;20189;-50
2023/04/01 05:25:42;;;;;;;0.90;0.77;;;12.30;63.30;;;;;;5035699;28;20845;-50
2023/04/01 05:28:08;;;;;;;2.83;0.90;;;12.40;62.50;;;;;;5028356;28;20443;-49
2023/04/01 05:30:34;;;;;;;2.87;0.90;;;12.50;62.30;;;;;;5036575;28;20560;-49
2023/04/01 05:32:59;;;;;;;0.90;0.70;;;12.40;62.30;;;;;;5031471;28;20202;-49
2023/04/01 05:35:26;;;;;;;2.93;0.67;;;12.40;62.50;;;;;;5034398;28;20220;-50
2023/04/01 05:37:51;;;;;;;1.57;0.80;;;12.50;62.70;;;;;;5039679;28;20699;-51
2023/04/01 05:40:17;;;;;;;2.03;1.10;;;12.50;62.70;;;;;;5039753;28;20468;-48
2023/04/01 05:42:43;;;;;;;1.43;0.70;;;12.60;62.90;;;;;;5032334;28;20193;-52
2023/04/01 05:45:09;;;;;;;1.17;0.80;;;12.50;62.80;;;;;;5034197;28;20475;-47
2023/04/01 05:47:35;;;;;;;2.60;0.87;;;12.50;63.40;;;;;;5037160;28;20193;-50
2023/04/01 05:50:00;;;;;;;0.90;0.70;;;12.50;63.20;;;;;;5039773;28;20450;-48
2023/04/01 05:52:26;;;;;;;2.27;0.90;;;12.60;63.10;;;;;;5042309;28;20196;-51
2023/04/01 05:54:51;;;;;;;1.27;0.93;;;12.80;62.40;;;;;;5043720;28;20247;-50
2023/04/01 05:57:17;;;;;;;1.73;0.90;;;12.80;61.70;;;;;;5042764;28;20201;-52
2023/04/01 05:59:43;;;;;;;0.60;0.50;;;13.00;61.10;;;;;;5039160;28;20270;-52
2023/04/01 06:02:10;;;;;;;1.47;0.80;;;13.20;60.80;;;;;;5038820;28;20571;-49
2023/04/01 06:04:39;;;;;;;2.20;0.80;;;13.30;60.10;;;;;;5034589;28;20197;-49
2023/04/01 06:07:14;;;;;;;1.57;0.83;;;13.20;59.80;;;;;;5040648;28;20499;-53
2023/04/01 06:09:40;;;;;;;1.43;0.80;;;13.10;59.80;;;;;;5048728;28;20810;-52
2023/04/01 06:12:43;;;;;;;1.20;0.80;;;13.00;59.70;;;;;;5050714;28;20430;-48
2023/04/01 06:15:11;;;;;;;1.37;0.73;;;13.10;60.00;;;;;;5051438;28;20560;-52
2023/04/01 06:18:00;;;;;;;2.77;0.90;;;13.30;59.80;;;;;;5043642;28;20809;-53
2023/04/01 06:21:02;;;;;;;0.83;0.80;;;13.30;59.20;;;;;;5051259;28;20455;-50
2023/04/01 06:24:14;;;;;;;2.63;0.70;;;13.40;59.30;;;;;;5048598;28;20537;-50
2023/04/01 06:27:12;;;;;;;1.10;0.70;;;13.50;59.10;;;;;;5038264;28;20450;-48
2023/04/01 06:29:55;;;;;;;2.17;1.00;;;13.70;58.80;;;;;;5011701;28;20503;-49
2023/04/01 06:32:46;;;;;;;2.93;0.90;;;13.50;58.50;;;;;;5046067;28;20461;-49
2023/04/01 06:35:18;;;;;;;1.43;0.60;;;13.30;58.20;;;;;;5047723;28;20496;-52
2023/04/01 06:38:08;;;;;;;5.90;1.10;;;13.40;58.70;;;;;;5051244;28;20957;-51
2023/04/01 06:40:51;;;;;;;1.17;0.70;;;13.40;58.80;;;;;;5044914;28;20505;-51
2023/04/01 06:43:51;;;;;;;0.80;0.80;;;13.40;58.70;;;;;;5039214;28;20951;-52
2023/04/01 06:46:39;;;;;;;2.30;0.90;;;13.40;58.80;;;;;;5047452;28;20442;-50
2023/04/01 06:49:26;;;;;;;4.30;0.70;;;13.50;58.20;;;;;;5044955;28;20442;-50
2023/04/01 06:52:19;;;;;;;2.47;0.83;;;13.50;58.40;;;;;;5042150;28;20447;-50
2023/04/01 06:54:51;;;;;;;2.47;0.90;;;13.60;58.30;;;;;;5053014;28;20491;-51
2023/04/01 06:57:40;;;;;;;1.33;0.80;;;13.60;58.30;;;;;;5053602;28;20776;-53
2023/04/01 07:00:19;;;;;;;3.13;0.80;;;13.60;58.30;;;;;;5051663;28;20439;-50
2023/04/01 07:02:58;;;;;;;2.87;1.00;;;13.20;57.90;;;;;;5033152;28;20495;-53
2023/04/01 07:05:28;;;;;;;0.70;0.70;;;12.80;58.70;;;;;;5043459;28;20435;-53
2023/04/01 07:07:59;;;;;;;1.37;0.80;;;12.70;59.00;;;;;;5053244;28;20443;-50
2023/04/01 07:11:04;;;;;;;2.50;0.80;;;13.00;59.50;;;;;;5053252;28;20942;-51
2023/04/01 07:13:47;;;;;;;2.37;0.70;;;12.90;59.10;;;;;;5052522;28;20578;-49
2023/04/01 07:16:16;;;;;;;2.50;0.90;;;12.70;59.30;;;;;;5052026;28;20851;-49
2023/04/01 07:18:45;;;;;;;2.67;0.60;;;12.60;59.60;;;;;;5051540;28;20463;-51
2023/04/01 07:21:23;;;;;;;1.57;1.23;;;12.60;59.40;;;;;;5053247;28;20438;-49
2023/04/01 07:23:50;;;;;;;1.93;1.03;;;12.70;59.90;;;;;;5051554;28;20490;-49
2023/04/01 07:26:20;;;;;;;0.90;0.50;;;12.90;59.80;;;;;;5052123;28;20803;-49
2023/04/01 07:28:46;;;;;;;2.10;0.90;;;12.90;59.30;;;;;;5053055;28;20427;-51
2023/04/01 07:31:25;;;;;;;1.83;0.70;;;12.90;59.20;;;;;;5052965;28;20836;-51
2023/04/01 07:34:09;;;;;;;1.07;0.93;;;13.00;59.60;;;;;;5052393;28;20265;-50
2023/04/01 07:37:02;;;;;;;1.47;0.77;;;13.00;59.40;;;;;;5051739;28;20457;-49
2023/04/01 07:39:35;;;;;;;1.23;0.80;;;13.00;59.60;;;;;;5052716;28;20443;-50
2023/04/01 07:42:29;;;;;;;1.47;1.00;;;12.80;59.70;;;;;;5052360;28;20431;-49
2023/04/01 07:45:26;;;;;;;2.50;1.07;;;12.70;59.90;;;;;;5052569;28;20937;-50
2023/04/01 07:48:33;;;;;;;1.43;1.10;;;12.90;59.90;;;;;;5048835;28;20443;-50
2023/04/01 07:51:11;;;;;;;1.17;1.07;;;13.00;59.80;;;;;;5053016;28;20446;-50
2023/04/01 07:54:01;;;;;;;2.60;1.27;;;13.00;59.50;;;;;;5052051;28;20482;-50
2023/04/01 07:56:51;;;;;;;1.37;0.80;;;13.00;59.40;;;;;;5037974;28;20597;-51
2023/04/01 07:59:32;;;;;;;2.17;0.90;;;13.00;59.40;;;;;;5032627;28;20958;-51
2023/04/01 08:02:16;;;;;;;2.73;1.00;;;13.00;59.30;;;;;;5032054;28;20489;-50
2023/04/01 08:05:04;;;;;;;0.90;0.90;;;12.80;59.10;;;;;;5032264;28;20535;-50
2023/04/01 08:08:05;;;;;;;1.43;0.80;;;12.80;59.80;;;;;;5036639;28;20489;-50
2023/04/01 08:10:42;;;;;;;4.00;0.80;;;12.80;60.00;;;;;;5052316;28;20439;-51
2023/04/01 08:13:26;;;;;;;0.93;0.70;;;13.00;60.10;;;;;;5050143;28;20443;-49
2023/04/01 08:16:20;;;;;;;0.97;0.70;;;13.10;59.80;;;;;;5051990;28;20439;-50
2023/04/01 08:18:58;;;;;;;0.70;0.70;;;13.10;59.20;;;;;;5043039;28;20920;-51
2023/04/01 08:21:40;;;;;;;1.90;0.90;;;12.80;59.20;;;;;;5032174;28;20424;-50
2023/04/01 08:24:22;;;;;;;1.40;0.83;;;12.80;60.10;;;;;;5031888;28;20943;-51
2023/04/01 08:26:52;;;;;;;2.13;1.10;;;13.10;59.80;;;;;;5032006;28;20431;-49
2023/04/01 08:29:30;;;;;;;1.37;0.80;;;13.00;59.40;;;;;;5035989;28;20432;-50
2023/04/01 08:32:10;;;;;;;1.83;0.80;;;12.70;59.80;;;;;;5031541;28;20440;-50
2023/04/01 08:34:39;;;;;;;1.73;0.90;;;12.60;60.50;;;;;;5031317;28;20553;-50
2023/04/01 08:37:07;;;;;;;3.30;2.47;;;12.70;61.50;;;;;;5031842;28;20808;-50
2023/04/01 08:39:44;;;;;;;2.67;0.70;;;12.70;61.10;;;;;;5036149;28;20435;-50
2023/04/01 08:42:12;;;;;;;1.10;0.80;;;12.80;61.20;;;;;;5051029;28;20438;-50
2023/04/01 08:45:00;;;;;;;1.60;0.97;;;12.90;61.00;;;;;;5051657;28;20431;-53
2023/04/01 08:47:50;;;;;;;1.87;0.73;;;13.00;60.70;;;;;;5045539;28;20440;-50
2023/04/01 08:50:27;;;;;;;1.47;0.80;;;13.00;60.90;;;;;;5034596;28;20444;-52
2023/04/01 08:53:05;;;;;;;1.37;0.70;;;12.90;61.80;;;;;;5031196;28;20942;-52
2023/04/01 08:55:37;;;;;;;1.40;0.70;;;12.90;63.60;;;;;;5031500;28;20482;-52
2023/04/01 08:58:26;;;;;;;2.10;0.73;;;12.90;63.30;;;;;;5031610;28;20439;-49
2023/04/01 09:01:03;;;;;;;1.30;0.90;;;12.60;65.60;;;;;;5030193;28;20845;-49
2023/04/01 09:03:37;;;;;;;0.80;0.70;;;12.70;65.60;;;;;;5026487;28;20448;-50
2023/04/01 09:06:21;;;;;;;1.37;1.00;;;12.60;65.40;;;;;;5025423;28;20927;-50
2023/04/01 09:08:50;;;;;;;1.23;0.70;;;12.70;66.00;;;;;;5027584;28;20455;-50
2023/04/01 09:11:38;;;;;;;0.70;0.70;;;12.50;65.80;;;;;;5031089;28;20424;-50
2023/04/01 09:14:30;;;;;;;1.37;1.00;;;12.70;67.30;;;;;;5031178;28;20495;-51
2023/04/01 09:17:30;;;;;;;1.10;1.00;;;12.90;66.60;;;;;;5026295;28;20459;-50
2023/04/01 09:20:35;;;;;;;0.90;0.83;;;12.90;65.60;;;;;;5021499;28;20474;-52
2023/04/01 09:23:22;;;;;;;1.30;1.10;;;13.10;64.60;;;;;;5015569;28;20498;-53
2023/04/01 09:26:12;;;;;;;1.00;0.90;;;12.80;64.00;;;;;;5025956;28;20534;-50
2023/04/01 09:29:06;;;;;;;1.80;0.90;;;12.70;64.80;;;;;;5029532;28;20444;-50
2023/04/01 09:31:47;;;;;;;0.60;0.53;;;12.70;64.70;;;;;;5026184;28;20460;-51
2023/04/01 09:34:19;;;;;;;1.73;0.60;;;12.80;65.00;;;;;;5025927;28;20503;-49
2023/04/01 09:37:10;;;;;;;1.07;0.70;;;12.80;64.10;;;;;;5018447;28;20456;-48
2023/04/01 09:40:17;;;;;;;1.00;0.60;;;12.50;64.40;;;;;;5024921;28;20450;-49
2023/04/01 09:42:51;;;;;;;0.60;0.50;;;12.70;64.50;;;;;;5022072;28;20514;-52
2023/04/01 09:45:20;;;;;;;0.63;0.63;;;12.60;64.50;;;;;;5028118;28;20443;-49
2023/04/01 09:47:54;;;;;;;1.43;0.90;;;12.90;65.30;;;;;;5031842;28;20447;-48
2023/04/01 09:50:36;;;;;;;0.50;0.40;;;13.00;63.80;;;;;;5028050;28;20538;-49
2023/04/01 09:53:08;;;;;;;1.00;0.63;;;12.70;62.40;;;;;;5035027;28;20519;-50
2023/04/01 09:55:56;;;;;;;0.80;0.70;;;12.70;63.40;;;;;;5046075;28;20483;-49
2023/04/01 09:58:22;;;;;;;1.53;0.60;;;12.80;63.90;;;;;;5044696;28;21767;-48
2023/04/01 10:00:56;;;;;;;0.50;0.50;;;13.00;63.40;;;;;;5046733;28;20443;-50
2023/04/01 10:03:52;;;;;;;0.57;0.50;;;12.80;63.20;;;;;;5042390;28;20660;-49
2023/04/01 10:06:37;;;;;;;0.70;0.60;;;12.80;63.70;;;;;;5046924;28;20474;-49
2023/04/01 10:09:21;;;;;;;0.97;0.53;;;12.50;62.30;;;;;;5041739;28;20461;-53
2023/04/01 10:11:53;;;;;;;2.83;0.60;;;12.60;63.40;;;;;;5049491;28;20443;-49
2023/04/01 10:14:37;;;;;;;0.50;0.50;;;12.60;62.90;;;;;;5048986;28;20582;-49
2023/04/01 10:17:31;;;;;;;1.10;0.57;;;12.60;62.60;;;;;;5034493;28;20432;-49
2023/04/01 10:20:28;;;;;;;0.70;0.57;;;12.50;62.80;;;;;;5043506;28;20450;-49
2023/04/01 10:23:15;;;;;;;0.80;0.60;;;12.50;62.10;;;;;;5037618;28;20630;-49
2023/04/01 10:25:46;;;;;;;0.53;0.50;;;12.70;61.70;;;;;;5038295;28;20841;-48
2023/04/01 10:28:40;;;;;;;0.60;0.60;;;12.60;62.00;;;;;;5043592;28;20463;-48
2023/04/01 10:31:35;;;;;;;2.30;0.93;;;12.70;61.60;;;;;;5041213;28;20459;-51
2023/04/01 10:34:07;;;;;;;1.23;0.80;;;12.80;61.20;;;;;;5040887;28;20911;-48
2023/04/01 10:36:44;;;;;;;0.60;0.60;;;12.90;61.10;;;;;;5037495;28;20494;-52
2023/04/01 10:39:34;;;;;;;0.70;0.70;;;12.80;60.40;;;;;;5044954;28;20984;-50
2023/04/01 10:42:21;;;;;;;0.90;0.60;;;13.00;60.50;;;;;;5039961;28;20447;-49
2023/04/01 10:45:20;;;;;;;0.60;0.50;;;13.30;60.80;;;;;;5046469;28;20446;-50
2023/04/01 10:48:13;;;;;;;0.70;0.67;;;13.40;59.40;;;;;;5041091;28;20804;-49
2023/04/01 10:50:55;;;;;;;2.20;0.60;;;13.20;59.80;;;;;;5042229;28;20470;-50
2023/04/01 10:53:49;;;;;;;0.50;0.50;;;13.30;60.40;;;;;;5043860;28;20502;-52
2023/04/01 10:56:29;;;;;;;0.70;0.60;;;13.30;59.60;;;;;;5041406;28;21124;-53
2023/04/01 10:59:20;;;;;;;0.50;0.50;;;13.10;60.00;;;;;;5045229;28;20447;-51
2023/04/01 11:02:12;;;;;;;0.40;0.40;;;13.10;60.20;;;;;;5048002;28;20444;-51
2023/04/01 11:04:47;;;;;;;0.70;0.47;;;12.70;59.90;;;;;;5053064;28;20565;-49
2023/04/01 11:07:54;;;;;;;0.70;0.50;;;12.80;60.70;;;;;;5046558;28;21000;-50
2023/04/01 11:10:53;;;;;;;1.13;0.57;;;12.60;60.90;;;;;;5045379;28;20440;-52
2023/04/01 11:13:42;;;;;;;0.50;0.50;;;12.50;60.80;;;;;;5046148;28;20497;-52
2023/04/01 11:16:47;;;;;;;1.03;0.63;;;12.70;61.60;;;;;;5042111;28;20463;-52
2023/04/01 11:19:31;;;;;;;0.50;0.50;;;12.80;60.90;;;;;;5039142;28;20599;-53
2023/04/01 11:22:05;;;;;;;0.50;0.50;;;12.80;60.70;;;;;;5040596;28;20537;-50
2023/04/01 11:24:48;;;;;;;0.50;0.50;;;12.90;60.00;;;;;;5042268;28;20821;-53
2023/04/01 11:27:41;;;;;;;0.53;0.53;;;12.90;59.60;;;;;;5047747;28;20475;-53
2023/04/01 11:30:46;;;;;;;0.50;0.50;;;13.20;59.70;;;;;;5049570;28;20447;-54
2023/04/01 11:33:45;;;;;;;0.60;0.50;;;13.20;58.70;;;;;;5006208;28;20463;-52
2023/04/01 11:36:48;;;;;;;0.50;0.40;;;13.10;58.70;;;;;;5044574;28;20456;-52
2023/04/01 11:39:55;;;;;;;0.60;0.60;;;13.00;59.00;;;;;;5043389;28;20444;-53
2023/04/01 11:42:39;;;;;;;0.60;0.50;;;13.20;58.60;;;;;;5045000;28;20458;-53
2023/04/01 11:45:20;;;;;;;0.70;0.70;;;13.30;58.60;;;;;;5044391;28;20781;-52
2023/04/01 11:48:02;;;;;;;0.50;0.50;;;13.30;57.90;;;;;;5042428;28;20443;-53
2023/04/01 11:50:28;;;;;;;0.50;0.50;;;13.30;57.50;;;;;;5047154;28;20450;-53
2023/04/01 11:53:02;;;;;;;0.70;0.70;;;13.40;57.90;;;;;;5041936;28;20544;-53
2023/04/01 11:55:30;;;;;;;0.50;0.50;;;13.30;57.90;;;;;;5044985;28;20323;-53
2023/04/01 11:58:05;;;;;;;0.60;0.60;;;13.30;58.00;;;;;;5049897;28;20451;-52
2023/04/01 12:01:04;;;;;;;0.87;0.80;;;13.40;57.60;;;;;;5048542;28;20458;-53
2023/04/01 12:03:44;;;;;;;0.70;0.70;;;13.50;57.80;;;;;;5044985;28;20859;-51
2023/04/01 12:06:30;;;;;;;0.50;0.50;;;13.60;57.20;;;;;;5041607;28;20473;-53
2023/04/01 12:09:17;;;;;;;2.83;1.20;;;13.60;56.80;;;;;;5044188;28;20501;-52
2023/04/01 12:11:54;;;;;;;1.07;0.70;;;13.40;58.00;;;;;;5042133;28;20450;-52
2023/04/01 12:14:39;;;;;;;0.80;0.53;;;13.50;59.00;;;;;;5040316;28;20487;-53
2023/04/01 12:17:11;;;;;;;0.60;0.60;;;13.40;59.20;;;;;;5037680;28;20493;-53
2023/04/01 12:19:43;;;;;;;0.60;0.60;;;13.20;59.50;;;;;;5049094;28;20447;-50
2023/04/01 12:22:35;;;;;;;0.90;0.60;;;13.10;59.70;;;;;;5037745;28;20447;-51
2023/04/01 12:25:21;;;;;;;1.30;1.00;;;13.20;59.60;;;;;;5042850;28;20454;-53
2023/04/01 12:28:11;;;;;;;0.60;0.53;;;13.50;60.80;;;;;;5044590;28;20522;-52
2023/04/01 12:30:51;;;;;;;1.50;0.67;;;13.50;59.60;;;;;;5045398;28;20443;-53
2023/04/01 12:33:51;;;;;;;0.73;0.73;;;13.80;60.80;;;;;;5039670;28;20431;-50
2023/04/01 12:36:47;;;;;;;1.13;0.70;;;13.60;59.50;;;;;;4997313;28;20471;-52
2023/04/01 12:39:33;;;;;;;0.60;0.60;;;13.20;59.70;;;;;;5025893;28;20954;-50
2023/04/01 12:42:27;;;;;;;1.23;1.13;;;13.10;61.30;;;;;;5040446;28;20454;-49
2023/04/01 12:45:23;;;;;;;0.67;0.50;;;13.10;61.10;;;;;;5037512;28;20483;-51
2023/04/01 12:48:23;;;;;;;0.70;0.70;;;13.00;61.40;;;;;;5044620;28;20477;-51
2023/04/01 12:51:03;;;;;;;0.60;0.60;;;13.20;61.20;;;;;;5041291;28;20546;-52
2023/04/01 12:54:06;;;;;;;0.60;0.60;;;13.20;60.80;;;;;;5032536;28;20551;-52
2023/04/01 12:56:57;;;;;;;0.90;0.63;;;13.30;60.80;;;;;;5041657;28;20458;-50
2023/04/01 12:59:54;;;;;;;0.83;0.67;;;13.30;59.60;;;;;;5035529;28;20914;-52
2023/04/01 13:02:55;;;;;;;0.50;0.50;;;13.20;59.00;;;;;;5036886;28;20870;-52
2023/04/01 13:05:41;;;;;;;0.60;0.60;;;13.00;58.40;;;;;;5046045;28;20469;-52
2023/04/01 13:08:18;;;;;;;0.60;0.60;;;13.20;58.70;;;;;;5030796;28;20431;-51
2023/04/01 13:10:52;;;;;;;0.93;0.70;;;13.10;58.20;;;;;;5042193;28;20446;-52
2023/04/01 13:13:37;;;;;;;0.60;0.60;;;13.20;58.40;;;;;;5036104;28;20435;-48
2023/04/01 13:16:12;;;;;;;0.60;0.50;;;13.00;58.00;;;;;;5041372;28;20458;-52
2023/04/01 13:18:50;;;;;;;0.90;0.70;;;13.00;58.10;;;;;;5043383;28;20443;-48
2023/04/01 13:21:53;;;;;;;0.70;0.50;;;13.10;58.30;;;;;;5046425;28;20438;-51
2023/04/01 13:24:37;;;;;;;1.40;0.80;;;13.40;58.40;;;;;;5041179;28;20462;-50
2023/04/01 13:27:03;;;;;;;0.67;0.67;;;13.50;57.40;;;;;;5044447;28;20450;-49
2023/04/01 13:29:36;;;;;;;0.70;0.70;;;13.40;57.00;;;;;;5047463;28;20443;-52
2023/04/01 13:32:26;;;;;;;0.93;0.83;;;13.20;57.80;;;;;;5037931;28;20243;-49
2023/04/01 13:35:30;;;;;;;3.90;2.93;;;13.50;58.10;;;;;;5041291;28;20479;-50
2023/04/01 13:38:20;;;;;;;1.10;1.00;;;13.80;57.30;;;;;;5037760;28;20459;-49